createdAt,value
2022-11-16T00:01:58.996Z,6.85
2022-11-16T00:04:26.783Z,7.90
2022-11-16T00:06:53.469Z,8.20
2022-11-16T00:09:19.953Z,7.82
2022-11-16T00:11:48.334Z,6.40
2022-11-16T00:14:14.774Z,7.10
2022-11-16T00:16:41.182Z,7.22
2022-11-16T00:19:08.046Z,7.05
2022-11-16T00:21:35.829Z,7.88
2022-11-16T00:24:02.720Z,7.20
2022-11-16T00:26:29.481Z,8.10
2022-11-16T00:28:56.285Z,8.05
2022-11-16T00:31:23.223Z,6.68
2022-11-16T00:33:50.424Z,7.45
2022-11-16T00:36:17.289Z,6.97
2022-11-16T00:38:45.059Z,8.10
2022-11-16T00:41:11.477Z,7.35
2022-11-16T00:43:37.908Z,7.68
2022-11-16T00:46:04.597Z,7.72
2022-11-16T00:48:31.716Z,6.93
2022-11-16T00:50:58.457Z,7.25
2022-11-16T00:53:24.858Z,6.85
2022-11-16T00:55:52.634Z,7.15
2022-11-16T00:58:19.053Z,8.85
2022-11-16T01:00:45.884Z,7.40
2022-11-16T01:03:12.344Z,7.82
2022-11-16T01:05:38.892Z,6.90
2022-11-16T01:08:06.039Z,7.75
2022-11-16T01:10:32.500Z,6.72
2022-11-16T01:13:00.322Z,7.93
2022-11-16T01:15:27.855Z,7.25
2022-11-16T01:17:55.643Z,7.82
2022-11-16T01:20:24.506Z,7.25
2022-11-16T01:22:51.504Z,7.07
2022-11-16T01:25:18.345Z,7.00
2022-11-16T01:27:44.850Z,7.82
2022-11-16T01:30:14.562Z,7.13
2022-11-16T01:32:41.054Z,7.00
2022-11-16T01:35:08.553Z,7.00
2022-11-16T01:37:35.007Z,6.57
2022-11-16T01:40:01.435Z,6.88
2022-11-16T01:42:29.911Z,7.43
2022-11-16T01:44:59.879Z,7.25
2022-11-16T01:47:28.467Z,7.00
2022-11-16T01:49:58.392Z,6.97
2022-11-16T01:52:28.654Z,8.70
2022-11-16T01:54:55.360Z,7.85
2022-11-16T01:57:25.733Z,7.72
2022-11-16T01:59:55.495Z,8.23
2022-11-16T02:02:22.006Z,7.97
2022-11-16T02:04:52.590Z,8.60
2022-11-16T02:07:30.532Z,8.57
2022-11-16T02:10:10.433Z,8.05
2022-11-16T02:13:06.024Z,7.95
2022-11-16T02:15:40.313Z,8.23
2022-11-16T02:18:22.373Z,7.93
2022-11-16T02:21:14.266Z,8.10
2022-11-16T02:24:07.263Z,8.20
2022-11-16T02:26:53.186Z,9.55
2022-11-16T02:29:24.333Z,8.63
2022-11-16T02:31:56.817Z,9.00
2022-11-16T02:34:28.174Z,8.82
2022-11-16T02:36:56.373Z,9.52
2022-11-16T02:39:27.154Z,9.60
2022-11-16T02:41:57.310Z,9.02
2022-11-16T02:44:30.069Z,9.18
2022-11-16T02:46:59.977Z,9.35
2022-11-16T02:49:29.443Z,9.32
2022-11-16T02:51:57.484Z,9.85
2022-11-16T02:54:23.904Z,9.25
2022-11-16T02:56:55.297Z,8.88
2022-11-16T02:59:24.014Z,10.43
2022-11-16T03:02:01.674Z,9.10
2022-11-16T03:04:32.460Z,9.95
2022-11-16T03:07:02.708Z,9.43
2022-11-16T03:09:32.877Z,10.27
2022-11-16T03:12:02.734Z,9.15
2022-11-16T03:14:34.215Z,10.25
2022-11-16T03:17:03.754Z,9.68
2022-11-16T03:19:37.142Z,10.15
2022-11-16T03:22:10.294Z,10.20
2022-11-16T03:24:37.250Z,10.05
2022-11-16T03:27:09.937Z,10.52
2022-11-16T03:29:41.659Z,10.18
2022-11-16T03:32:14.146Z,9.93
2022-11-16T03:34:44.935Z,10.07
2022-11-16T03:37:12.596Z,10.35
2022-11-16T03:39:39.898Z,11.50
2022-11-16T03:42:10.937Z,11.35
2022-11-16T03:44:38.691Z,11.73
2022-11-16T03:47:05.217Z,10.85
2022-11-16T03:49:33.254Z,11.68
2022-11-16T03:51:59.745Z,10.90
2022-11-16T03:54:26.251Z,11.77
2022-11-16T03:56:52.658Z,11.73
2022-11-16T03:59:19.053Z,12.13
2022-11-16T04:01:45.429Z,11.93
2022-11-16T04:04:12.002Z,12.85
2022-11-16T04:06:39.793Z,11.68
2022-11-16T04:09:06.191Z,13.70
2022-11-16T04:11:32.795Z,13.60
2022-11-16T04:13:59.638Z,13.65
2022-11-16T04:16:26.042Z,13.30
2022-11-16T04:18:52.497Z,13.85
2022-11-16T04:21:22.110Z,14.82
2022-11-16T04:23:50.007Z,13.52
2022-11-16T04:26:16.657Z,14.02
2022-11-16T04:28:43.203Z,13.88
2022-11-16T04:31:09.737Z,16.25
2022-11-16T04:33:36.450Z,14.73
2022-11-16T04:36:03.001Z,14.05
2022-11-16T04:38:29.438Z,14.77
2022-11-16T04:40:57.154Z,15.50
2022-11-16T04:43:23.555Z,15.30
2022-11-16T04:45:49.951Z,14.85
2022-11-16T04:48:18.342Z,16.42
2022-11-16T04:50:46.038Z,16.67
2022-11-16T04:53:13.210Z,16.92
2022-11-16T04:55:39.776Z,15.73
2022-11-16T04:58:07.511Z,17.15
2022-11-16T05:00:34.039Z,17.50
2022-11-16T05:03:01.807Z,17.58
2022-11-16T05:05:28.665Z,16.77
2022-11-16T05:07:55.500Z,17.35
2022-11-16T05:10:22.123Z,17.95
2022-11-16T05:12:48.699Z,17.02
2022-11-16T05:15:16.860Z,17.17
2022-11-16T05:17:43.451Z,19.77
2022-11-16T05:20:10.796Z,18.45
2022-11-16T05:22:37.491Z,18.67
2022-11-16T05:25:04.856Z,17.35
2022-11-16T05:27:31.512Z,16.58
2022-11-16T05:29:58.771Z,18.17
2022-11-16T05:32:27.796Z,17.27
2022-11-16T05:34:54.414Z,19.45
2022-11-16T05:37:21.113Z,18.30
2022-11-16T05:39:47.784Z,18.70
2022-11-16T05:42:14.200Z,17.85
2022-11-16T05:44:40.666Z,18.50
2022-11-16T05:47:07.097Z,16.83
2022-11-16T05:49:34.843Z,18.35
2022-11-16T05:52:01.331Z,17.80
2022-11-16T05:54:27.748Z,16.92
2022-11-16T05:56:54.692Z,19.70
2022-11-16T05:59:22.677Z,19.20
2022-11-16T06:01:50.118Z,18.50
2022-11-16T06:06:59.209Z,18.42
2022-11-16T06:09:25.688Z,18.40
2022-11-16T06:11:52.092Z,20.20
2022-11-16T06:14:18.690Z,19.98
2022-11-16T06:16:45.140Z,20.73
2022-11-16T06:19:11.739Z,18.75
2022-11-16T06:21:38.329Z,19.67
2022-11-16T06:24:06.585Z,21.60
2022-11-16T06:26:32.973Z,20.83
2022-11-16T06:28:59.654Z,21.23
2022-11-16T06:31:26.137Z,20.88
2022-11-16T06:33:52.526Z,20.75
2022-11-16T06:36:18.985Z,21.80
2022-11-16T06:38:45.369Z,21.38
2022-11-16T06:41:13.126Z,21.50
2022-11-16T06:43:39.557Z,22.25
2022-11-16T06:46:05.966Z,23.17
2022-11-16T06:48:32.621Z,22.58
2022-11-16T06:50:59.230Z,21.67
2022-11-16T06:53:29.166Z,23.00
2022-11-16T06:56:00.994Z,22.05
2022-11-16T06:58:30.042Z,23.13
2022-11-16T07:00:56.523Z,22.58
2022-11-16T07:03:23.097Z,23.17
2022-11-16T07:05:49.616Z,23.85
2022-11-16T07:08:16.022Z,22.08
2022-11-16T07:10:42.434Z,23.77
2022-11-16T07:13:08.823Z,22.92
2022-11-16T07:15:36.562Z,24.35
2022-11-16T07:18:05.132Z,24.83
2022-11-16T07:20:31.753Z,24.17
2022-11-16T07:22:59.843Z,24.95
2022-11-16T07:25:26.458Z,24.45
2022-11-16T07:27:52.888Z,24.30
2022-11-16T07:30:20.171Z,28.02
2022-11-16T07:32:47.908Z,26.50
2022-11-16T07:35:14.376Z,24.77
2022-11-16T07:37:40.782Z,25.50
2022-11-16T07:40:08.686Z,26.73
2022-11-16T07:42:35.377Z,26.58
2022-11-16T07:45:01.841Z,25.42
2022-11-16T07:47:28.273Z,27.67
2022-11-16T07:49:56.025Z,25.50
2022-11-16T07:52:22.406Z,24.67
2022-11-16T07:54:48.802Z,28.38
2022-11-16T07:57:15.239Z,27.70
2022-11-16T07:59:41.633Z,27.52
2022-11-16T08:02:09.354Z,25.50
2022-11-16T08:04:35.789Z,24.33
2022-11-16T08:07:03.581Z,26.38
2022-11-16T08:09:30.090Z,25.73
2022-11-16T08:11:56.487Z,29.02
2022-11-16T08:14:22.901Z,31.55
2022-11-16T08:16:49.314Z,32.75
2022-11-16T08:19:15.704Z,33.65
2022-11-16T08:21:42.115Z,32.83
2022-11-16T08:24:10.418Z,34.53
2022-11-16T08:26:36.865Z,36.35
2022-11-16T08:29:03.376Z,32.40
2022-11-16T08:31:30.028Z,33.35
2022-11-16T08:33:56.578Z,29.83
2022-11-16T08:36:23.600Z,28.05
2022-11-16T08:38:51.088Z,27.58
2022-11-16T08:41:19.832Z,26.90
2022-11-16T08:43:46.758Z,27.63
2022-11-16T08:46:13.529Z,26.77
2022-11-16T08:48:39.956Z,25.20
2022-11-16T08:51:17.434Z,25.92
2022-11-16T08:53:45.555Z,26.25
2022-11-16T08:56:12.247Z,29.98
2022-11-16T08:58:41.531Z,25.83
2022-11-16T09:01:09.423Z,28.52
2022-11-16T09:03:36.494Z,26.63
2022-11-16T09:06:02.902Z,28.83
2022-11-16T09:08:29.364Z,27.52
2022-11-16T09:10:55.800Z,28.58
2022-11-16T09:13:22.196Z,29.48
2022-11-16T09:15:56.025Z,26.73
2022-11-16T09:20:48.723Z,28.85
2022-11-16T09:23:15.227Z,27.17
2022-11-16T09:25:41.972Z,26.30
2022-11-16T09:28:08.381Z,26.73
2022-11-16T09:30:34.969Z,29.05
2022-11-16T09:33:02.781Z,28.20
2022-11-16T09:35:29.187Z,26.85
2022-11-16T09:37:55.648Z,26.98
2022-11-16T09:40:22.305Z,26.00
2022-11-16T09:42:59.322Z,25.73
2022-11-16T09:45:33.091Z,23.92
2022-11-16T09:50:41.722Z,26.30
2022-11-16T09:53:22.534Z,25.27
2022-11-16T09:55:51.883Z,26.05
2022-11-16T09:58:23.173Z,27.33
2022-11-16T10:00:56.007Z,24.65
2022-11-16T10:03:25.139Z,26.80
2022-11-16T10:05:59.727Z,27.17
2022-11-16T10:08:36.001Z,26.45
2022-11-16T10:11:22.076Z,28.33
2022-11-16T10:14:03.988Z,26.95
2022-11-16T10:16:38.110Z,25.73
2022-11-16T10:19:14.751Z,26.60
2022-11-16T10:21:51.220Z,28.67
2022-11-16T10:24:50.240Z,26.95
2022-11-16T10:27:38.432Z,27.75
2022-11-16T10:30:10.245Z,29.08
2022-11-16T10:32:43.922Z,26.27
2022-11-16T10:35:16.975Z,26.75
2022-11-16T10:37:48.116Z,23.23
2022-11-16T10:40:19.760Z,25.15
2022-11-16T10:42:53.847Z,25.45
2022-11-16T10:45:25.338Z,25.30
2022-11-16T10:47:58.017Z,27.05
2022-11-16T10:50:33.000Z,27.42
2022-11-16T10:53:00.951Z,27.15
2022-11-16T10:55:27.775Z,26.83
2022-11-16T10:57:56.646Z,27.55
2022-11-16T11:00:34.830Z,27.20
2022-11-16T11:03:01.409Z,27.15
2022-11-16T11:05:27.911Z,26.10
2022-11-16T11:08:02.536Z,26.23
2022-11-16T11:10:31.299Z,25.38
2022-11-16T11:13:03.118Z,26.33
2022-11-16T11:15:29.554Z,23.60
2022-11-16T11:18:25.392Z,23.65
2022-11-16T11:21:04.115Z,23.80
2022-11-16T11:23:40.220Z,21.75
2022-11-16T11:26:10.440Z,22.42
2022-11-16T11:28:38.347Z,24.13
2022-11-16T11:31:09.170Z,21.77
2022-11-16T11:33:38.874Z,22.40
2022-11-16T11:36:10.799Z,22.70
2022-11-16T11:38:56.113Z,21.35
2022-11-16T11:41:23.027Z,21.20
2022-11-16T11:44:01.243Z,21.95
2022-11-16T11:46:56.041Z,20.27
2022-11-16T11:49:23.602Z,20.02
2022-11-16T11:51:52.022Z,20.02
2022-11-16T11:54:23.837Z,20.40
2022-11-16T11:56:50.520Z,19.90
2022-11-16T11:59:20.701Z,19.80
2022-11-16T12:02:07.188Z,20.60
2022-11-16T12:04:56.612Z,22.00
2022-11-16T12:07:36.906Z,24.50
2022-11-16T12:10:15.577Z,23.10
2022-11-16T12:12:53.842Z,22.58
2022-11-16T12:15:33.189Z,21.42
2022-11-16T12:18:14.494Z,23.52
2022-11-16T12:20:49.928Z,21.73
2022-11-16T12:23:47.574Z,21.23
2022-11-16T12:26:26.018Z,21.67
2022-11-16T12:29:04.281Z,20.27
2022-11-16T12:31:51.094Z,20.05
2022-11-16T12:34:29.640Z,18.08
2022-11-16T12:37:04.177Z,19.73
2022-11-16T12:39:34.631Z,20.55
2022-11-16T12:42:31.322Z,19.40
2022-11-16T12:45:13.481Z,19.55
2022-11-16T12:47:54.780Z,20.10
2022-11-16T12:50:38.380Z,20.15
2022-11-16T12:53:18.245Z,21.58
2022-11-16T12:55:51.974Z,19.70
2022-11-16T13:01:02.816Z,19.65
2022-11-16T13:03:36.120Z,17.83
2022-11-16T13:06:06.470Z,20.02
2022-11-16T13:08:46.833Z,17.20
2022-11-16T13:11:18.558Z,21.63
2022-11-16T13:13:53.458Z,17.42
2022-11-16T13:16:21.712Z,16.63
2022-11-16T13:18:48.420Z,17.55
2022-11-16T13:21:31.120Z,18.58
2022-11-16T13:24:12.901Z,16.77
2022-11-16T13:26:46.962Z,18.45
2022-11-16T13:29:24.417Z,18.40
2022-11-16T13:31:58.436Z,20.20
2022-11-16T13:34:27.044Z,18.55
2022-11-16T13:36:53.440Z,17.65
2022-11-16T13:39:22.938Z,19.58
2022-11-16T13:41:51.313Z,18.17
2022-11-16T13:44:29.606Z,19.63
2022-11-16T13:46:59.547Z,17.17
2022-11-16T13:49:30.869Z,19.35
2022-11-16T13:52:16.836Z,17.90
2022-11-16T13:54:49.341Z,19.38
2022-11-16T13:57:23.939Z,20.00
2022-11-16T14:00:10.500Z,17.38
2022-11-16T14:02:38.853Z,17.85
2022-11-16T14:05:14.713Z,19.15
2022-11-16T14:07:42.780Z,20.15
2022-11-16T14:10:11.236Z,19.58
2022-11-16T14:12:55.572Z,18.77
2022-11-16T14:15:26.386Z,19.52
2022-11-16T14:17:59.283Z,21.15
2022-11-16T14:20:35.292Z,21.03
2022-11-16T14:23:14.008Z,21.73
2022-11-16T14:25:44.763Z,21.13
2022-11-16T14:28:38.131Z,20.88
2022-11-16T14:31:15.226Z,15.13
2022-11-16T14:33:42.016Z,21.52
2022-11-16T14:36:10.174Z,20.33
2022-11-16T14:38:38.505Z,19.30
2022-11-16T14:41:07.114Z,20.08
2022-11-16T14:43:39.890Z,21.20
2022-11-16T14:46:13.815Z,20.45
2022-11-16T14:48:43.971Z,18.85
2022-11-16T14:51:13.896Z,19.02
2022-11-16T14:53:45.390Z,17.67
2022-11-16T14:56:13.555Z,18.02
2022-11-16T14:58:40.175Z,18.08
2022-11-16T15:01:14.305Z,17.88
2022-11-16T15:03:50.112Z,18.55
2022-11-16T15:06:16.609Z,18.80
2022-11-16T15:08:46.993Z,18.63
2022-11-16T15:11:23.054Z,18.77
2022-11-16T15:13:50.176Z,18.08
2022-11-16T15:16:19.801Z,17.95
2022-11-16T15:18:56.765Z,18.25
2022-11-16T15:21:24.001Z,19.30
2022-11-16T15:24:15.535Z,18.52
2022-11-16T15:26:38.303Z,17.50
2022-11-16T15:29:04.763Z,18.88
2022-11-16T15:31:34.261Z,16.92
2022-11-16T15:34:01.523Z,18.15
2022-11-16T15:36:33.023Z,28.17
2022-11-16T15:39:02.253Z,18.95
2022-11-16T15:41:29.005Z,21.83
2022-11-16T15:44:15.055Z,19.65
2022-11-16T15:46:46.875Z,20.17
2022-11-16T15:49:24.825Z,19.00
2022-11-16T15:51:51.295Z,20.67
2022-11-16T15:54:24.100Z,19.85
2022-11-16T15:56:53.553Z,15.07
2022-11-16T15:59:24.864Z,18.45
2022-11-16T16:01:52.812Z,18.33
2022-11-16T16:04:19.461Z,19.90
2022-11-16T16:06:48.316Z,19.20
2022-11-16T16:09:24.070Z,19.70
2022-11-16T16:11:51.093Z,18.05
2022-11-16T16:14:28.655Z,19.80
2022-11-16T16:16:57.486Z,21.45
2022-11-16T16:19:43.046Z,21.08
2022-11-16T16:22:14.220Z,19.85
2022-11-16T16:24:42.873Z,20.40
2022-11-16T16:27:17.439Z,22.27
2022-11-16T16:29:44.539Z,20.25
2022-11-16T16:32:17.898Z,21.25
2022-11-16T16:34:44.276Z,21.02
2022-11-16T16:37:11.384Z,21.00
2022-11-16T16:39:38.118Z,22.15
2022-11-16T16:42:05.985Z,22.17
2022-11-16T16:44:32.397Z,22.15
2022-11-16T16:46:59.167Z,20.15
2022-11-16T16:49:26.881Z,19.20
2022-11-16T16:51:53.273Z,20.25
2022-11-16T16:54:19.693Z,20.02
2022-11-16T16:56:46.096Z,20.50
2022-11-16T16:59:13.443Z,19.23
2022-11-16T17:01:40.575Z,18.42
2022-11-16T17:04:07.239Z,18.58
2022-11-16T17:06:34.990Z,19.15
2022-11-16T17:09:01.481Z,18.20
2022-11-16T17:11:27.917Z,18.50
2022-11-16T17:13:54.915Z,18.13
2022-11-16T17:16:21.406Z,19.45
2022-11-16T17:18:47.845Z,19.42
2022-11-16T17:21:14.582Z,17.52
2022-11-16T17:23:42.338Z,18.02
2022-11-16T17:26:09.202Z,18.55
2022-11-16T17:28:35.629Z,18.60
2022-11-16T17:31:02.615Z,16.55
2022-11-16T17:33:33.327Z,17.27
2022-11-16T17:36:00.022Z,18.08
2022-11-16T17:38:26.444Z,16.75
2022-11-16T17:41:02.772Z,16.63
2022-11-16T17:43:29.448Z,17.20
2022-11-16T17:46:02.251Z,16.70
2022-11-16T17:48:28.634Z,16.70
2022-11-16T17:50:55.254Z,17.25
2022-11-16T17:53:21.650Z,15.48
2022-11-16T17:55:48.064Z,15.88
2022-11-16T17:58:15.823Z,15.13
2022-11-16T18:00:42.231Z,15.38
2022-11-16T18:03:08.627Z,14.45
2022-11-16T18:05:35.064Z,15.25
2022-11-16T18:08:01.471Z,14.65
2022-11-16T18:10:27.888Z,13.95
2022-11-16T18:12:54.304Z,14.30
2022-11-16T18:15:28.455Z,13.27
2022-11-16T18:17:55.805Z,13.02
2022-11-16T18:20:22.217Z,12.63
2022-11-16T18:22:48.661Z,12.40
2022-11-16T18:25:15.676Z,11.52
2022-11-16T18:27:42.072Z,12.25
2022-11-16T18:30:10.026Z,11.93
2022-11-16T18:32:37.801Z,12.00
2022-11-16T18:35:04.926Z,11.65
2022-11-16T18:37:31.327Z,11.18
2022-11-16T18:39:57.738Z,9.43
2022-11-16T18:42:24.131Z,9.82
2022-11-16T18:44:50.682Z,9.43
2022-11-16T18:47:17.291Z,9.95
2022-11-16T18:49:45.014Z,10.15
2022-11-16T18:52:11.394Z,8.68
2022-11-16T18:54:37.967Z,9.70
2022-11-16T18:57:04.568Z,8.23
2022-11-16T18:59:31.199Z,7.90
2022-11-16T19:01:57.728Z,8.25
2022-11-16T19:04:24.264Z,8.10
2022-11-16T19:06:52.114Z,7.28
2022-11-16T19:09:18.565Z,6.55
2022-11-16T19:11:44.941Z,8.05
2022-11-16T19:14:11.450Z,7.20
2022-11-16T19:16:41.859Z,7.97
2022-11-16T19:21:37.962Z,7.13
2022-11-16T19:24:07.086Z,7.55
2022-11-16T19:26:33.492Z,6.88
2022-11-16T19:29:00.032Z,6.70
2022-11-16T19:31:28.561Z,8.02
2022-11-16T19:33:56.070Z,6.00
2022-11-16T19:36:23.118Z,7.45
2022-11-16T19:38:50.246Z,5.93
2022-11-16T19:41:19.035Z,6.13
2022-11-16T19:43:45.447Z,6.20
2022-11-16T19:46:13.848Z,6.50
2022-11-16T19:48:40.239Z,6.97
2022-11-16T19:51:07.896Z,6.75
2022-11-16T19:53:35.194Z,5.35
2022-11-16T19:56:01.962Z,5.43
2022-11-16T19:58:29.990Z,6.47
2022-11-16T20:01:00.747Z,5.65
2022-11-16T20:03:27.329Z,6.50
2022-11-16T20:05:53.815Z,6.95
2022-11-16T20:08:20.255Z,7.10
2022-11-16T20:10:46.647Z,6.00
2022-11-16T20:13:13.023Z,6.50
2022-11-16T20:15:40.971Z,9.95
2022-11-16T20:18:07.371Z,5.65
2022-11-16T20:20:33.809Z,6.63
2022-11-16T20:23:00.367Z,7.15
2022-11-16T20:25:26.787Z,6.63
2022-11-16T20:27:53.194Z,7.03
2022-11-16T20:30:20.587Z,8.02
2022-11-16T20:32:48.340Z,7.25
2022-11-16T20:35:18.952Z,6.57
2022-11-16T20:37:45.647Z,6.15
2022-11-16T20:40:12.453Z,5.50
2022-11-16T20:42:38.868Z,5.22
2022-11-16T20:45:07.032Z,5.35
2022-11-16T20:47:33.491Z,5.95
2022-11-16T20:50:01.245Z,5.15
2022-11-16T20:52:27.655Z,6.28
2022-11-16T20:54:54.047Z,5.13
2022-11-16T20:57:20.432Z,5.25
2022-11-16T20:59:47.368Z,4.53
2022-11-16T21:02:13.780Z,4.13
2022-11-16T21:04:40.322Z,4.68
2022-11-16T21:07:08.114Z,4.32
2022-11-16T21:09:34.614Z,4.93
2022-11-16T21:12:01.008Z,4.72
2022-11-16T21:14:27.660Z,5.30
2022-11-16T21:16:54.063Z,4.55
2022-11-16T21:19:20.701Z,4.13
2022-11-16T21:21:47.126Z,5.32
2022-11-16T21:24:14.857Z,5.20
2022-11-16T21:26:41.294Z,4.30
2022-11-16T21:29:07.981Z,4.47
2022-11-16T21:31:36.422Z,3.55
2022-11-16T21:34:03.325Z,4.30
2022-11-16T21:36:31.604Z,4.20
2022-11-16T21:38:58.421Z,4.40
2022-11-16T21:41:26.907Z,3.92
2022-11-16T21:43:53.496Z,4.35
2022-11-16T21:46:21.459Z,4.57
2022-11-16T21:48:48.417Z,4.85
2022-11-16T21:51:16.384Z,4.43
2022-11-16T21:53:43.104Z,5.05
2022-11-16T21:56:12.639Z,5.03
2022-11-16T21:58:41.190Z,4.95
2022-11-16T22:01:09.065Z,5.30
2022-11-16T22:03:36.159Z,4.85
2022-11-16T22:06:11.335Z,4.65
2022-11-16T22:08:38.450Z,5.45
2022-11-16T22:11:05.426Z,5.28
2022-11-16T22:13:31.958Z,4.88
2022-11-16T22:16:04.059Z,4.90
2022-11-16T22:18:30.970Z,5.45
2022-11-16T22:20:57.479Z,5.18
2022-11-16T22:23:23.915Z,5.28
2022-11-16T22:25:51.037Z,5.00
2022-11-16T22:28:21.511Z,4.95
2022-11-16T22:30:51.742Z,5.10
2022-11-16T22:33:20.036Z,5.90
2022-11-16T22:35:46.884Z,5.55
2022-11-16T22:38:13.292Z,4.45
2022-11-16T22:40:39.704Z,5.60
2022-11-16T22:43:06.090Z,5.35
2022-11-16T22:45:32.504Z,6.07
2022-11-16T22:47:58.911Z,5.40
2022-11-16T22:50:26.625Z,5.35
2022-11-16T22:52:53.018Z,5.50
2022-11-16T22:55:19.438Z,5.28
2022-11-16T22:57:45.854Z,6.13
2022-11-16T23:00:13.455Z,5.45
2022-11-16T23:02:40.024Z,5.28
2022-11-16T23:05:07.079Z,5.80
2022-11-16T23:07:34.908Z,6.72
2022-11-16T23:10:01.666Z,6.15
2022-11-16T23:12:28.051Z,5.93
2022-11-16T23:14:54.458Z,5.60
2022-11-16T23:17:20.866Z,5.63
2022-11-16T23:19:47.312Z,6.38
2022-11-16T23:22:15.360Z,6.15
2022-11-16T23:24:43.875Z,6.25
2022-11-16T23:27:10.346Z,5.45
2022-11-16T23:29:36.809Z,5.82
2022-11-16T23:32:03.453Z,5.97
2022-11-16T23:34:29.880Z,5.18
2022-11-16T23:37:01.816Z,6.22
2022-11-16T23:39:28.245Z,6.68
2022-11-16T23:41:56.055Z,5.28
2022-11-16T23:44:22.473Z,6.20
2022-11-16T23:46:48.892Z,5.63
2022-11-16T23:49:15.419Z,6.50
2022-11-16T23:51:41.817Z,5.88
2022-11-16T23:54:08.232Z,6.55
2022-11-16T23:56:34.641Z,6.38
2022-11-16T23:59:02.382Z,6.55
